Empalme Querandies, Argentina
Current Conditions -  °F | °C
As of 5:00 AM on Saturday 25 Oct 2014 (Local Time) from SAZM Reporting Station
Overcast Overcast  
Wind Chill: 59°   Ceiling: 1000
Heat Index: 59°   Visibility: 4mi
Dew Point: 57°   Wind: 7mph
Humidity: 94%   Direction: 340°NNW
Pressure: 29.97"   Gusts: NA
Location:  36.93°S, 60.31°W
Report Text: SAZM 250800Z 34006KT 6000 SCT006 OVC01015/14 Q1015
Loading
Personal Weather Stations






























Interactive Weather Map
Tropical Storm Tracking
New forecast layout! Learn more

10-Day Weather Forecast

Advertisements
Track Severe Weather on mobile